Groesbeck, Texas
Current Conditions -  °F | °C
As of 2:15 PM on Friday 19 Dec 2014 (Local Time) from KLXY Reporting Station
Overcast Overcast  
Wind Chill: 45°   Ceiling: 500
Heat Index: 49°   Visibility: 10mi
Dew Point: 47°   Wind: 9mph
Humidity: 93%   Direction: 350°N
Pressure: 30.1"   Gusts: NA
Location:  31.52°N, 96.53°W
Report Text: KLXY 192015Z AUTO 35008KT 10SM OVC005 10/09 A3010 RMK AO2 T00950085
Loading
Personal Weather Stations






























Interactive Weather Map New forecast layout! Learn more

10-Day Weather Forecast

Advertisements
Track Severe Weather on mobile